Terminal Aerodrome Forecast
Issued by NWS St Louis, MO

Home | Current Version | Previous Version | Text Only | Print | Product List | Glossary Off
Versions: 1 2 3 4 5 6 7 8 9 10 11 12 13 14 15 16 17 18 19 20 21 22 23

339
FTUS43 KLSX 302326
TAFCOU
TAF
KCOU 302326Z 0100/0124 29008KT P6SM SCT050
     FM010300 28005KT P6SM SCT040
      TEMPO 0109/0113 3SM BR
     FM011500 28008KT P6SM SCT030
     FM011800 28013KT P6SM BKN040=

USA.gov is the U.S. government's official web portal to all federal, state and local government web resources and services.